Centerville Muni Information

FAA: TVK - ICAO: KTVK

Centerville Muni (Airport) Location

State Iowa
County Appanoose
City Centerville
Centerville Muni (Airport) is 3 miles southwest of Centerville, IA.
Latitude 40-41-03.9000N
Longitude 092-54-03.6000W
Elevation 1,023ft

Centerville Muni METARs

METAR KTVK 181315Z AUTO 18009KT 10SM CLR M02/M02 A2980 RMK AO2
Altimeter 29.80"
Temperature -2.0°C (28.4°F)
Wind 180° at 9KT
Clouds Skies are clear.
Visibility 10.0mi
Time observed: 2022-01-18T13:15:00Z

Centerville Muni (Airport) Details

Status Operational
Activation April 1940
Ownership Public
Usage Public
Chart CHICAGO
ATC on-site No
Beacon schedule sunset-sunrise
Beacon color clear green

Centerville Muni (Airport) Contacts

Owner CITY OF CENTERVILLE
Owner address PO BOX 578 312 EAST MAPLE, CENTERVILLE, IA 52544
Owner phone 641-437-4339
Manager MS. MARY BEAIRD
Manager address 2515 SUMMER ST, BURLINGTON, IA 52601
Manager phone 319-754-1414

Centerville Muni Radio Frequencies

Centerville Muni (Airport) Radio Frequencies

UNICOM 122.8
Common traffic advisory frequency (CTAF) 122.8